sensor_id;sensor_type;location;lat;lon;timestamp;P1;durP1;ratioP1;P2;durP2;ratioP2
9100;SDS011;4586;52.518;13.486;2022-10-13T00:02:02;6.60;;;2.67;;
9100;SDS011;4586;52.518;13.486;2022-10-13T00:06:05;4.60;;;1.97;;
9100;SDS011;4586;52.518;13.486;2022-10-13T00:10:07;4.27;;;2.47;;
9100;SDS011;4586;52.518;13.486;2022-10-13T00:14:08;4.60;;;2.37;;
9100;SDS011;4586;52.518;13.486;2022-10-13T00:18:09;4.13;;;2.30;;
9100;SDS011;4586;52.518;13.486;2022-10-13T00:22:10;3.77;;;2.13;;
9100;SDS011;4586;52.518;13.486;2022-10-13T00:26:12;5.23;;;2.63;;
9100;SDS011;4586;52.518;13.486;2022-10-13T00:30:13;6.80;;;2.37;;
9100;SDS011;4586;52.518;13.486;2022-10-13T00:34:14;4.57;;;2.57;;
9100;SDS011;4586;52.518;13.486;2022-10-13T00:38:16;5.63;;;2.57;;
9100;SDS011;4586;52.518;13.486;2022-10-13T00:42:17;3.70;;;2.40;;
9100;SDS011;4586;52.518;13.486;2022-10-13T00:46:19;4.70;;;2.47;;
9100;SDS011;4586;52.518;13.486;2022-10-13T00:50:24;5.87;;;2.53;;
9100;SDS011;4586;52.518;13.486;2022-10-13T00:54:27;4.33;;;2.23;;
9100;SDS011;4586;52.518;13.486;2022-10-13T00:58:29;4.40;;;2.60;;
9100;SDS011;4586;52.518;13.486;2022-10-13T01:02:30;6.17;;;2.33;;
9100;SDS011;4586;52.518;13.486;2022-10-13T01:06:32;4.80;;;2.30;;
9100;SDS011;4586;52.518;13.486;2022-10-13T01:10:53;5.30;;;2.20;;
9100;SDS011;4586;52.518;13.486;2022-10-13T01:15:43;2.77;;;2.20;;
9100;SDS011;4586;52.518;13.486;2022-10-13T01:27:57;4.63;;;2.80;;
9100;SDS011;4586;52.518;13.486;2022-10-13T01:36:11;6.97;;;2.50;;
9100;SDS011;4586;52.518;13.486;2022-10-13T01:40:17;4.73;;;2.43;;
9100;SDS011;4586;52.518;13.486;2022-10-13T01:44:24;4.17;;;2.33;;
9100;SDS011;4586;52.518;13.486;2022-10-13T01:48:26;2.80;;;2.30;;
9100;SDS011;4586;52.518;13.486;2022-10-13T01:52:30;2.77;;;2.10;;
9100;SDS011;4586;52.518;13.486;2022-10-13T01:56:32;6.07;;;2.77;;
9100;SDS011;4586;52.518;13.486;2022-10-13T02:00:34;5.30;;;2.60;;
9100;SDS011;4586;52.518;13.486;2022-10-13T02:13:11;3.20;;;2.30;;
9100;SDS011;4586;52.518;13.486;2022-10-13T02:17:13;3.90;;;2.37;;
9100;SDS011;4586;52.518;13.486;2022-10-13T02:21:18;4.03;;;2.37;;
9100;SDS011;4586;52.518;13.486;2022-10-13T02:25:19;6.73;;;2.80;;
9100;SDS011;4586;52.518;13.486;2022-10-13T02:29:20;5.07;;;2.70;;
9100;SDS011;4586;52.518;13.486;2022-10-13T02:33:21;4.27;;;2.40;;
9100;SDS011;4586;52.518;13.486;2022-10-13T02:37:22;4.73;;;2.70;;
9100;SDS011;4586;52.518;13.486;2022-10-13T02:41:23;4.17;;;2.67;;
9100;SDS011;4586;52.518;13.486;2022-10-13T02:45:24;3.93;;;2.63;;
9100;SDS011;4586;52.518;13.486;2022-10-13T02:49:28;3.33;;;2.40;;
9100;SDS011;4586;52.518;13.486;2022-10-13T02:53:29;5.03;;;2.57;;
9100;SDS011;4586;52.518;13.486;2022-10-13T02:57:30;5.80;;;2.40;;
9100;SDS011;4586;52.518;13.486;2022-10-13T03:01:32;5.47;;;2.50;;
9100;SDS011;4586;52.518;13.486;2022-10-13T03:05:33;4.20;;;2.63;;
9100;SDS011;4586;52.518;13.486;2022-10-13T03:09:34;4.37;;;2.57;;
9100;SDS011;4586;52.518;13.486;2022-10-13T03:13:35;3.20;;;2.50;;
9100;SDS011;4586;52.518;13.486;2022-10-13T03:17:39;4.20;;;2.67;;
9100;SDS011;4586;52.518;13.486;2022-10-13T03:21:40;3.67;;;2.87;;
9100;SDS011;4586;52.518;13.486;2022-10-13T03:25:41;4.30;;;2.60;;
9100;SDS011;4586;52.518;13.486;2022-10-13T03:29:42;4.10;;;2.70;;
9100;SDS011;4586;52.518;13.486;2022-10-13T03:33:43;7.40;;;2.63;;
9100;SDS011;4586;52.518;13.486;2022-10-13T03:37:44;4.03;;;2.80;;
9100;SDS011;4586;52.518;13.486;2022-10-13T03:41:46;5.73;;;2.90;;
9100;SDS011;4586;52.518;13.486;2022-10-13T03:45:53;3.03;;;2.33;;
9100;SDS011;4586;52.518;13.486;2022-10-13T03:49:54;4.90;;;2.60;;
9100;SDS011;4586;52.518;13.486;2022-10-13T03:53:55;6.17;;;3.00;;
9100;SDS011;4586;52.518;13.486;2022-10-13T03:57:56;4.30;;;2.60;;
9100;SDS011;4586;52.518;13.486;2022-10-13T04:01:57;2.67;;;2.20;;
9100;SDS011;4586;52.518;13.486;2022-10-13T04:05:58;4.73;;;2.73;;
9100;SDS011;4586;52.518;13.486;2022-10-13T04:09:59;4.60;;;2.57;;
9100;SDS011;4586;52.518;13.486;2022-10-13T04:14:00;5.13;;;2.73;;
9100;SDS011;4586;52.518;13.486;2022-10-13T04:18:01;2.30;;;2.03;;
9100;SDS011;4586;52.518;13.486;2022-10-13T04:22:03;5.33;;;2.67;;
9100;SDS011;4586;52.518;13.486;2022-10-13T04:26:04;5.33;;;2.80;;
9100;SDS011;4586;52.518;13.486;2022-10-13T04:30:06;6.47;;;3.07;;
9100;SDS011;4586;52.518;13.486;2022-10-13T04:34:07;6.40;;;3.20;;
9100;SDS011;4586;52.518;13.486;2022-10-13T04:38:08;37.23;;;13.47;;
9100;SDS011;4586;52.518;13.486;2022-10-13T04:42:09;15.40;;;6.37;;
9100;SDS011;4586;52.518;13.486;2022-10-13T04:46:12;7.87;;;4.17;;
9100;SDS011;4586;52.518;13.486;2022-10-13T04:50:13;11.63;;;5.37;;
9100;SDS011;4586;52.518;13.486;2022-10-13T04:54:14;5.77;;;3.10;;
9100;SDS011;4586;52.518;13.486;2022-10-13T04:58:15;7.83;;;3.07;;
9100;SDS011;4586;52.518;13.486;2022-10-13T05:02:16;2.80;;;2.50;;
9100;SDS011;4586;52.518;13.486;2022-10-13T05:06:19;8.93;;;3.50;;
9100;SDS011;4586;52.518;13.486;2022-10-13T05:10:22;6.80;;;3.10;;
9100;SDS011;4586;52.518;13.486;2022-10-13T05:14:23;9.50;;;5.40;;
9100;SDS011;4586;52.518;13.486;2022-10-13T05:18:24;3.90;;;3.07;;
9100;SDS011;4586;52.518;13.486;2022-10-13T05:22:26;7.07;;;3.53;;
9100;SDS011;4586;52.518;13.486;2022-10-13T05:26:28;4.60;;;3.73;;
9100;SDS011;4586;52.518;13.486;2022-10-13T05:30:29;8.13;;;4.57;;
9100;SDS011;4586;52.518;13.486;2022-10-13T05:34:34;4.40;;;2.67;;
9100;SDS011;4586;52.518;13.486;2022-10-13T05:38:35;9.80;;;5.40;;
9100;SDS011;4586;52.518;13.486;2022-10-13T05:42:36;4.63;;;3.00;;
9100;SDS011;4586;52.518;13.486;2022-10-13T05:46:36;9.03;;;3.50;;
9100;SDS011;4586;52.518;13.486;2022-10-13T05:50:37;7.27;;;4.17;;
9100;SDS011;4586;52.518;13.486;2022-10-13T05:54:40;4.57;;;3.40;;
9100;SDS011;4586;52.518;13.486;2022-10-13T05:58:43;10.87;;;3.73;;
9100;SDS011;4586;52.518;13.486;2022-10-13T06:02:47;4.97;;;3.70;;
9100;SDS011;4586;52.518;13.486;2022-10-13T06:06:51;6.47;;;3.80;;
9100;SDS011;4586;52.518;13.486;2022-10-13T06:10:52;6.10;;;2.83;;
9100;SDS011;4586;52.518;13.486;2022-10-13T06:14:53;4.43;;;2.77;;
9100;SDS011;4586;52.518;13.486;2022-10-13T06:18:54;6.23;;;3.47;;
9100;SDS011;4586;52.518;13.486;2022-10-13T06:22:55;6.00;;;3.20;;
9100;SDS011;4586;52.518;13.486;2022-10-13T06:26:56;3.83;;;2.70;;
9100;SDS011;4586;52.518;13.486;2022-10-13T06:30:57;13.60;;;6.73;;
9100;SDS011;4586;52.518;13.486;2022-10-13T06:34:58;9.37;;;5.10;;
9100;SDS011;4586;52.518;13.486;2022-10-13T06:38:59;4.63;;;2.53;;
9100;SDS011;4586;52.518;13.486;2022-10-13T06:43:00;4.40;;;3.10;;
9100;SDS011;4586;52.518;13.486;2022-10-13T06:47:02;18.90;;;9.67;;
9100;SDS011;4586;52.518;13.486;2022-10-13T06:51:04;5.87;;;3.37;;
9100;SDS011;4586;52.518;13.486;2022-10-13T06:55:05;5.53;;;2.83;;
9100;SDS011;4586;52.518;13.486;2022-10-13T06:59:06;8.67;;;3.07;;
9100;SDS011;4586;52.518;13.486;2022-10-13T07:03:09;5.70;;;3.03;;
9100;SDS011;4586;52.518;13.486;2022-10-13T07:07:10;3.80;;;3.10;;
9100;SDS011;4586;52.518;13.486;2022-10-13T07:11:12;5.33;;;2.97;;
9100;SDS011;4586;52.518;13.486;2022-10-13T07:15:13;11.03;;;6.23;;
9100;SDS011;4586;52.518;13.486;2022-10-13T07:19:14;9.80;;;5.40;;
9100;SDS011;4586;52.518;13.486;2022-10-13T07:23:16;8.43;;;3.67;;
9100;SDS011;4586;52.518;13.486;2022-10-13T07:27:17;8.40;;;3.00;;
9100;SDS011;4586;52.518;13.486;2022-10-13T07:31:18;4.53;;;2.77;;
9100;SDS011;4586;52.518;13.486;2022-10-13T07:35:19;5.40;;;3.57;;
9100;SDS011;4586;52.518;13.486;2022-10-13T07:39:20;7.50;;;4.07;;
9100;SDS011;4586;52.518;13.486;2022-10-13T07:43:21;7.30;;;3.67;;
9100;SDS011;4586;52.518;13.486;2022-10-13T07:47:22;8.63;;;4.23;;
9100;SDS011;4586;52.518;13.486;2022-10-13T07:51:23;6.57;;;4.60;;
9100;SDS011;4586;52.518;13.486;2022-10-13T07:55:24;5.93;;;4.53;;
9100;SDS011;4586;52.518;13.486;2022-10-13T07:59:27;7.93;;;4.33;;
9100;SDS011;4586;52.518;13.486;2022-10-13T08:03:29;7.07;;;4.57;;
9100;SDS011;4586;52.518;13.486;2022-10-13T08:07:30;8.53;;;4.57;;
9100;SDS011;4586;52.518;13.486;2022-10-13T08:11:31;7.83;;;4.60;;
9100;SDS011;4586;52.518;13.486;2022-10-13T08:15:31;9.03;;;4.30;;
9100;SDS011;4586;52.518;13.486;2022-10-13T08:19:32;8.93;;;4.60;;
9100;SDS011;4586;52.518;13.486;2022-10-13T08:23:33;11.10;;;6.00;;
9100;SDS011;4586;52.518;13.486;2022-10-13T08:27:34;6.73;;;4.50;;
9100;SDS011;4586;52.518;13.486;2022-10-13T08:31:36;8.13;;;4.73;;
9100;SDS011;4586;52.518;13.486;2022-10-13T08:35:37;8.97;;;4.70;;
9100;SDS011;4586;52.518;13.486;2022-10-13T08:39:38;11.80;;;5.03;;
9100;SDS011;4586;52.518;13.486;2022-10-13T08:43:39;8.73;;;4.77;;
9100;SDS011;4586;52.518;13.486;2022-10-13T08:47:44;5.23;;;4.00;;
9100;SDS011;4586;52.518;13.486;2022-10-13T08:51:46;8.37;;;4.87;;
9100;SDS011;4586;52.518;13.486;2022-10-13T08:55:48;9.57;;;4.73;;
9100;SDS011;4586;52.518;13.486;2022-10-13T08:59:51;11.50;;;6.07;;
9100;SDS011;4586;52.518;13.486;2022-10-13T09:04:15;10.97;;;6.57;;
9100;SDS011;4586;52.518;13.486;2022-10-13T09:08:19;9.23;;;4.63;;
9100;SDS011;4586;52.518;13.486;2022-10-13T09:12:21;7.43;;;4.47;;
9100;SDS011;4586;52.518;13.486;2022-10-13T09:16:26;8.10;;;4.30;;
9100;SDS011;4586;52.518;13.486;2022-10-13T09:20:27;10.23;;;4.80;;
9100;SDS011;4586;52.518;13.486;2022-10-13T09:24:28;6.60;;;4.57;;
9100;SDS011;4586;52.518;13.486;2022-10-13T09:28:29;5.00;;;3.57;;
9100;SDS011;4586;52.518;13.486;2022-10-13T09:32:33;10.47;;;5.30;;
9100;SDS011;4586;52.518;13.486;2022-10-13T09:36:35;8.63;;;4.77;;
9100;SDS011;4586;52.518;13.486;2022-10-13T09:40:37;8.37;;;5.13;;
9100;SDS011;4586;52.518;13.486;2022-10-13T09:44:38;7.13;;;4.80;;
9100;SDS011;4586;52.518;13.486;2022-10-13T09:48:39;7.93;;;3.97;;
9100;SDS011;4586;52.518;13.486;2022-10-13T09:52:41;21.00;;;8.87;;
9100;SDS011;4586;52.518;13.486;2022-10-13T09:56:42;23.03;;;10.87;;
9100;SDS011;4586;52.518;13.486;2022-10-13T10:00:47;10.70;;;7.23;;
9100;SDS011;4586;52.518;13.486;2022-10-13T10:04:48;10.97;;;6.17;;
9100;SDS011;4586;52.518;13.486;2022-10-13T10:08:56;9.27;;;6.13;;
9100;SDS011;4586;52.518;13.486;2022-10-13T10:13:00;7.47;;;4.63;;
9100;SDS011;4586;52.518;13.486;2022-10-13T10:21:05;11.53;;;5.90;;
9100;SDS011;4586;52.518;13.486;2022-10-13T10:29:23;8.50;;;5.23;;
9100;SDS011;4586;52.518;13.486;2022-10-13T10:33:35;4.93;;;3.80;;
9100;SDS011;4586;52.518;13.486;2022-10-13T10:41:54;7.40;;;5.40;;
9100;SDS011;4586;52.518;13.486;2022-10-13T10:45:58;9.57;;;5.17;;
9100;SDS011;4586;52.518;13.486;2022-10-13T10:50:03;8.40;;;5.00;;
9100;SDS011;4586;52.518;13.486;2022-10-13T10:54:22;8.03;;;4.03;;
9100;SDS011;4586;52.518;13.486;2022-10-13T10:58:43;8.23;;;5.37;;
9100;SDS011;4586;52.518;13.486;2022-10-13T11:07:01;7.77;;;5.00;;
9100;SDS011;4586;52.518;13.486;2022-10-13T11:19:27;7.33;;;4.73;;
9100;SDS011;4586;52.518;13.486;2022-10-13T11:23:30;8.20;;;5.10;;
9100;SDS011;4586;52.518;13.486;2022-10-13T11:31:49;8.77;;;5.43;;
9100;SDS011;4586;52.518;13.486;2022-10-13T11:35:50;6.50;;;4.23;;
9100;SDS011;4586;52.518;13.486;2022-10-13T11:40:14;10.80;;;5.17;;
9100;SDS011;4586;52.518;13.486;2022-10-13T11:44:27;6.97;;;4.10;;
9100;SDS011;4586;52.518;13.486;2022-10-13T11:48:35;9.73;;;6.43;;
9100;SDS011;4586;52.518;13.486;2022-10-13T11:57:00;7.90;;;4.43;;
9100;SDS011;4586;52.518;13.486;2022-10-13T12:01:02;6.10;;;4.10;;
9100;SDS011;4586;52.518;13.486;2022-10-13T12:05:06;8.27;;;3.57;;
9100;SDS011;4586;52.518;13.486;2022-10-13T12:09:17;7.60;;;4.90;;
9100;SDS011;4586;52.518;13.486;2022-10-13T12:13:23;10.57;;;5.17;;
9100;SDS011;4586;52.518;13.486;2022-10-13T12:21:25;7.23;;;4.50;;
9100;SDS011;4586;52.518;13.486;2022-10-13T12:25:27;4.67;;;3.27;;
9100;SDS011;4586;52.518;13.486;2022-10-13T12:29:31;7.93;;;3.83;;
9100;SDS011;4586;52.518;13.486;2022-10-13T12:33:33;7.40;;;3.13;;
9100;SDS011;4586;52.518;13.486;2022-10-13T12:37:34;6.30;;;3.07;;
9100;SDS011;4586;52.518;13.486;2022-10-13T12:41:36;7.03;;;3.67;;
9100;SDS011;4586;52.518;13.486;2022-10-13T12:45:38;6.73;;;3.47;;
9100;SDS011;4586;52.518;13.486;2022-10-13T12:49:39;8.60;;;3.77;;
9100;SDS011;4586;52.518;13.486;2022-10-13T12:53:40;4.87;;;3.23;;
9100;SDS011;4586;52.518;13.486;2022-10-13T12:57:43;8.00;;;3.67;;
9100;SDS011;4586;52.518;13.486;2022-10-13T13:01:45;6.30;;;3.10;;
9100;SDS011;4586;52.518;13.486;2022-10-13T13:06:05;5.10;;;3.37;;
9100;SDS011;4586;52.518;13.486;2022-10-13T13:14:21;6.60;;;3.50;;
9100;SDS011;4586;52.518;13.486;2022-10-13T13:22:23;5.67;;;2.80;;
9100;SDS011;4586;52.518;13.486;2022-10-13T13:26:24;5.43;;;2.87;;
9100;SDS011;4586;52.518;13.486;2022-10-13T13:30:25;7.77;;;3.43;;
9100;SDS011;4586;52.518;13.486;2022-10-13T13:34:26;4.40;;;2.60;;
9100;SDS011;4586;52.518;13.486;2022-10-13T13:38:27;9.17;;;4.03;;
9100;SDS011;4586;52.518;13.486;2022-10-13T13:42:28;3.77;;;2.57;;
9100;SDS011;4586;52.518;13.486;2022-10-13T13:46:29;3.27;;;2.60;;
9100;SDS011;4586;52.518;13.486;2022-10-13T13:50:31;2.97;;;2.67;;
9100;SDS011;4586;52.518;13.486;2022-10-13T13:54:32;8.10;;;3.28;;
9100;SDS011;4586;52.518;13.486;2022-10-13T13:58:33;4.47;;;3.00;;
9100;SDS011;4586;52.518;13.486;2022-10-13T14:02:35;8.65;;;4.28;;
9100;SDS011;4586;52.518;13.486;2022-10-13T14:06:36;7.03;;;4.00;;
9100;SDS011;4586;52.518;13.486;2022-10-13T14:10:40;5.00;;;3.23;;
9100;SDS011;4586;52.518;13.486;2022-10-13T14:14:41;7.13;;;3.80;;
9100;SDS011;4586;52.518;13.486;2022-10-13T14:18:42;5.97;;;3.30;;
9100;SDS011;4586;52.518;13.486;2022-10-13T14:22:43;6.60;;;4.03;;
9100;SDS011;4586;52.518;13.486;2022-10-13T14:26:46;7.00;;;3.77;;
9100;SDS011;4586;52.518;13.486;2022-10-13T14:30:47;7.83;;;4.43;;
9100;SDS011;4586;52.518;13.486;2022-10-13T14:34:48;8.43;;;5.73;;
9100;SDS011;4586;52.518;13.486;2022-10-13T14:38:49;8.23;;;4.23;;
9100;SDS011;4586;52.518;13.486;2022-10-13T14:42:51;12.27;;;7.67;;
9100;SDS011;4586;52.518;13.486;2022-10-13T14:46:51;4.93;;;2.83;;
9100;SDS011;4586;52.518;13.486;2022-10-13T14:50:52;5.63;;;2.30;;
9100;SDS011;4586;52.518;13.486;2022-10-13T14:54:53;5.07;;;2.88;;
9100;SDS011;4586;52.518;13.486;2022-10-13T14:58:55;4.38;;;2.83;;
9100;SDS011;4586;52.518;13.486;2022-10-13T15:03:00;7.22;;;4.90;;
9100;SDS011;4586;52.518;13.486;2022-10-13T15:07:01;9.13;;;4.47;;
9100;SDS011;4586;52.518;13.486;2022-10-13T15:11:03;11.73;;;5.30;;
9100;SDS011;4586;52.518;13.486;2022-10-13T15:15:04;11.48;;;5.07;;
9100;SDS011;4586;52.518;13.486;2022-10-13T15:19:05;8.88;;;4.47;;
9100;SDS011;4586;52.518;13.486;2022-10-13T15:23:06;6.23;;;4.13;;
9100;SDS011;4586;52.518;13.486;2022-10-13T15:27:07;5.13;;;4.10;;
9100;SDS011;4586;52.518;13.486;2022-10-13T15:31:08;5.22;;;3.80;;
9100;SDS011;4586;52.518;13.486;2022-10-13T15:35:09;7.50;;;4.38;;
9100;SDS011;4586;52.518;13.486;2022-10-13T15:39:13;5.88;;;3.80;;
9100;SDS011;4586;52.518;13.486;2022-10-13T15:43:14;8.40;;;5.03;;
9100;SDS011;4586;52.518;13.486;2022-10-13T15:47:16;8.83;;;4.07;;
9100;SDS011;4586;52.518;13.486;2022-10-13T15:51:17;6.78;;;4.28;;
9100;SDS011;4586;52.518;13.486;2022-10-13T15:55:19;6.40;;;4.53;;
9100;SDS011;4586;52.518;13.486;2022-10-13T15:59:20;9.07;;;5.00;;
9100;SDS011;4586;52.518;13.486;2022-10-13T16:03:21;8.20;;;5.23;;
9100;SDS011;4586;52.518;13.486;2022-10-13T16:07:22;5.63;;;3.73;;
9100;SDS011;4586;52.518;13.486;2022-10-13T16:11:23;7.97;;;4.87;;
9100;SDS011;4586;52.518;13.486;2022-10-13T16:15:24;7.67;;;4.30;;
9100;SDS011;4586;52.518;13.486;2022-10-13T16:19:25;6.38;;;4.68;;
9100;SDS011;4586;52.518;13.486;2022-10-13T16:23:26;9.90;;;6.47;;
9100;SDS011;4586;52.518;13.486;2022-10-13T16:27:27;8.65;;;4.82;;
9100;SDS011;4586;52.518;13.486;2022-10-13T16:31:28;13.47;;;7.67;;
9100;SDS011;4586;52.518;13.486;2022-10-13T16:35:29;6.97;;;4.53;;
9100;SDS011;4586;52.518;13.486;2022-10-13T16:39:30;16.75;;;8.88;;
9100;SDS011;4586;52.518;13.486;2022-10-13T16:43:31;7.45;;;4.53;;
9100;SDS011;4586;52.518;13.486;2022-10-13T16:47:32;13.50;;;7.70;;
9100;SDS011;4586;52.518;13.486;2022-10-13T16:51:33;9.18;;;4.95;;
9100;SDS011;4586;52.518;13.486;2022-10-13T16:55:34;8.70;;;5.20;;
9100;SDS011;4586;52.518;13.486;2022-10-13T16:59:38;10.20;;;5.43;;
9100;SDS011;4586;52.518;13.486;2022-10-13T17:03:41;6.70;;;4.53;;
9100;SDS011;4586;52.518;13.486;2022-10-13T17:07:42;6.90;;;4.67;;
9100;SDS011;4586;52.518;13.486;2022-10-13T17:11:43;6.93;;;5.00;;
9100;SDS011;4586;52.518;13.486;2022-10-13T17:15:51;8.02;;;5.40;;
9100;SDS011;4586;52.518;13.486;2022-10-13T17:19:52;11.52;;;6.10;;
9100;SDS011;4586;52.518;13.486;2022-10-13T17:23:54;10.15;;;5.05;;
9100;SDS011;4586;52.518;13.486;2022-10-13T17:27:55;8.77;;;5.10;;
9100;SDS011;4586;52.518;13.486;2022-10-13T17:31:56;8.80;;;5.07;;
9100;SDS011;4586;52.518;13.486;2022-10-13T17:35:57;7.10;;;4.88;;
9100;SDS011;4586;52.518;13.486;2022-10-13T17:39:59;10.47;;;5.97;;
9100;SDS011;4586;52.518;13.486;2022-10-13T17:44:00;10.80;;;5.77;;
9100;SDS011;4586;52.518;13.486;2022-10-13T17:48:01;8.40;;;5.63;;
9100;SDS011;4586;52.518;13.486;2022-10-13T17:52:03;12.17;;;6.13;;
9100;SDS011;4586;52.518;13.486;2022-10-13T17:56:05;8.97;;;5.23;;
9100;SDS011;4586;52.518;13.486;2022-10-13T18:00:06;10.97;;;6.00;;
9100;SDS011;4586;52.518;13.486;2022-10-13T18:04:15;7.50;;;5.38;;
9100;SDS011;4586;52.518;13.486;2022-10-13T18:08:17;7.53;;;5.63;;
9100;SDS011;4586;52.518;13.486;2022-10-13T18:12:18;11.07;;;6.30;;
9100;SDS011;4586;52.518;13.486;2022-10-13T18:16:20;11.43;;;6.33;;
9100;SDS011;4586;52.518;13.486;2022-10-13T18:20:21;12.73;;;6.50;;
9100;SDS011;4586;52.518;13.486;2022-10-13T18:24:25;12.13;;;6.87;;
9100;SDS011;4586;52.518;13.486;2022-10-13T18:28:29;10.80;;;6.87;;
9100;SDS011;4586;52.518;13.486;2022-10-13T18:32:30;9.77;;;6.13;;
9100;SDS011;4586;52.518;13.486;2022-10-13T18:36:32;10.93;;;5.80;;
9100;SDS011;4586;52.518;13.486;2022-10-13T18:40:33;11.33;;;5.87;;
9100;SDS011;4586;52.518;13.486;2022-10-13T18:44:34;10.70;;;6.33;;
9100;SDS011;4586;52.518;13.486;2022-10-13T18:48:35;10.10;;;6.37;;
9100;SDS011;4586;52.518;13.486;2022-10-13T18:52:36;9.07;;;6.03;;
9100;SDS011;4586;52.518;13.486;2022-10-13T18:56:37;8.67;;;6.10;;
9100;SDS011;4586;52.518;13.486;2022-10-13T19:00:38;10.03;;;6.00;;
9100;SDS011;4586;52.518;13.486;2022-10-13T19:04:39;12.77;;;7.23;;
9100;SDS011;4586;52.518;13.486;2022-10-13T19:08:40;9.03;;;6.47;;
9100;SDS011;4586;52.518;13.486;2022-10-13T19:12:41;11.53;;;6.87;;
9100;SDS011;4586;52.518;13.486;2022-10-13T19:16:42;10.70;;;6.60;;
9100;SDS011;4586;52.518;13.486;2022-10-13T19:20:43;8.07;;;6.27;;
9100;SDS011;4586;52.518;13.486;2022-10-13T19:24:44;12.27;;;7.80;;
9100;SDS011;4586;52.518;13.486;2022-10-13T19:28:45;11.03;;;7.10;;
9100;SDS011;4586;52.518;13.486;2022-10-13T19:32:46;19.67;;;8.47;;
9100;SDS011;4586;52.518;13.486;2022-10-13T19:36:48;17.50;;;7.73;;
9100;SDS011;4586;52.518;13.486;2022-10-13T19:40:49;18.80;;;8.00;;
9100;SDS011;4586;52.518;13.486;2022-10-13T19:44:49;19.20;;;8.57;;
9100;SDS011;4586;52.518;13.486;2022-10-13T19:48:50;17.50;;;9.53;;
9100;SDS011;4586;52.518;13.486;2022-10-13T19:52:51;22.80;;;10.10;;
9100;SDS011;4586;52.518;13.486;2022-10-13T19:56:52;25.67;;;9.87;;
9100;SDS011;4586;52.518;13.486;2022-10-13T20:00:53;18.97;;;9.10;;
9100;SDS011;4586;52.518;13.486;2022-10-13T20:04:54;25.47;;;10.83;;
9100;SDS011;4586;52.518;13.486;2022-10-13T20:08:56;19.43;;;9.93;;
9100;SDS011;4586;52.518;13.486;2022-10-13T20:12:57;18.93;;;9.97;;
9100;SDS011;4586;52.518;13.486;2022-10-13T20:16:58;18.00;;;10.00;;
9100;SDS011;4586;52.518;13.486;2022-10-13T20:21:00;19.33;;;9.13;;
9100;SDS011;4586;52.518;13.486;2022-10-13T20:25:01;18.47;;;9.10;;
9100;SDS011;4586;52.518;13.486;2022-10-13T20:29:02;16.30;;;8.37;;
9100;SDS011;4586;52.518;13.486;2022-10-13T20:33:03;16.20;;;9.10;;
9100;SDS011;4586;52.518;13.486;2022-10-13T20:37:04;19.00;;;8.87;;
9100;SDS011;4586;52.518;13.486;2022-10-13T20:41:05;14.67;;;8.93;;
9100;SDS011;4586;52.518;13.486;2022-10-13T20:45:07;15.50;;;8.33;;
9100;SDS011;4586;52.518;13.486;2022-10-13T20:49:09;16.17;;;9.43;;
9100;SDS011;4586;52.518;13.486;2022-10-13T20:53:10;15.03;;;9.20;;
9100;SDS011;4586;52.518;13.486;2022-10-13T20:57:11;16.23;;;9.53;;
9100;SDS011;4586;52.518;13.486;2022-10-13T21:01:12;18.47;;;9.53;;
9100;SDS011;4586;52.518;13.486;2022-10-13T21:05:13;15.60;;;9.67;;
9100;SDS011;4586;52.518;13.486;2022-10-13T21:09:14;17.53;;;9.73;;
9100;SDS011;4586;52.518;13.486;2022-10-13T21:13:15;15.47;;;9.57;;
9100;SDS011;4586;52.518;13.486;2022-10-13T21:17:16;19.43;;;9.00;;
9100;SDS011;4586;52.518;13.486;2022-10-13T21:21:21;13.70;;;8.73;;
9100;SDS011;4586;52.518;13.486;2022-10-13T21:25:24;16.43;;;9.30;;
9100;SDS011;4586;52.518;13.486;2022-10-13T21:29:27;13.97;;;8.80;;
9100;SDS011;4586;52.518;13.486;2022-10-13T21:33:28;15.20;;;10.00;;
9100;SDS011;4586;52.518;13.486;2022-10-13T21:37:34;13.73;;;9.50;;
9100;SDS011;4586;52.518;13.486;2022-10-13T21:41:36;14.43;;;9.17;;
9100;SDS011;4586;52.518;13.486;2022-10-13T21:45:37;14.03;;;8.87;;
9100;SDS011;4586;52.518;13.486;2022-10-13T21:49:38;14.60;;;9.70;;
9100;SDS011;4586;52.518;13.486;2022-10-13T21:53:39;15.50;;;8.80;;
9100;SDS011;4586;52.518;13.486;2022-10-13T21:57:39;14.47;;;9.23;;
9100;SDS011;4586;52.518;13.486;2022-10-13T22:01:41;16.90;;;9.67;;
9100;SDS011;4586;52.518;13.486;2022-10-13T22:05:45;19.47;;;10.37;;
9100;SDS011;4586;52.518;13.486;2022-10-13T22:09:46;14.93;;;10.13;;
9100;SDS011;4586;52.518;13.486;2022-10-13T22:13:47;15.93;;;9.67;;
9100;SDS011;4586;52.518;13.486;2022-10-13T22:17:48;16.73;;;10.70;;
9100;SDS011;4586;52.518;13.486;2022-10-13T22:21:49;45.10;;;27.23;;
9100;SDS011;4586;52.518;13.486;2022-10-13T22:25:50;103.17;;;55.87;;
9100;SDS011;4586;52.518;13.486;2022-10-13T22:29:52;56.30;;;27.17;;
9100;SDS011;4586;52.518;13.486;2022-10-13T22:33:53;21.03;;;13.37;;
9100;SDS011;4586;52.518;13.486;2022-10-13T22:37:54;26.63;;;15.00;;
9100;SDS011;4586;52.518;13.486;2022-10-13T22:41:55;19.07;;;11.77;;
9100;SDS011;4586;52.518;13.486;2022-10-13T22:45:56;19.17;;;10.73;;
9100;SDS011;4586;52.518;13.486;2022-10-13T22:49:57;15.13;;;9.60;;
9100;SDS011;4586;52.518;13.486;2022-10-13T22:53:58;16.87;;;9.23;;
9100;SDS011;4586;52.518;13.486;2022-10-13T22:57:59;12.77;;;9.33;;
9100;SDS011;4586;52.518;13.486;2022-10-13T23:02:00;17.73;;;11.13;;
9100;SDS011;4586;52.518;13.486;2022-10-13T23:06:02;17.00;;;10.50;;
9100;SDS011;4586;52.518;13.486;2022-10-13T23:10:03;16.90;;;10.97;;
9100;SDS011;4586;52.518;13.486;2022-10-13T23:14:04;14.73;;;10.27;;
9100;SDS011;4586;52.518;13.486;2022-10-13T23:18:05;18.67;;;11.03;;
9100;SDS011;4586;52.518;13.486;2022-10-13T23:22:06;17.20;;;10.47;;
9100;SDS011;4586;52.518;13.486;2022-10-13T23:26:09;16.40;;;10.07;;
9100;SDS011;4586;52.518;13.486;2022-10-13T23:30:10;15.27;;;9.73;;
9100;SDS011;4586;52.518;13.486;2022-10-13T23:34:11;15.00;;;9.83;;
9100;SDS011;4586;52.518;13.486;2022-10-13T23:38:12;19.87;;;9.83;;
9100;SDS011;4586;52.518;13.486;2022-10-13T23:42:13;18.10;;;10.23;;
9100;SDS011;4586;52.518;13.486;2022-10-13T23:46:14;16.77;;;10.27;;
9100;SDS011;4586;52.518;13.486;2022-10-13T23:50:15;16.43;;;10.60;;
9100;SDS011;4586;52.518;13.486;2022-10-13T23:54:16;17.00;;;10.23;;
9100;SDS011;4586;52.518;13.486;2022-10-13T23:58:17;15.07;;;10.23;;
